Terminal Aerodrome Forecast
Issued by NWS Cleveland, OH

Home | Current Version | Previous Version | Text Only | Print | Product List | Glossary On
Versions: 1 2 3 4 5 6 7 8 9 10 11 12 13 14 15 16 17 18 19 20 21 22 23 24
810
FTUS41 KCLE 291948 AAB
TAFTOL
TAF AMD
KTOL 291948Z 2920/3018 06012KT P6SM BKN035
     FM292300 07007KT P6SM OVC120
     FM301000 07010KT P6SM OVC060
     FM301300 07010G20KT 4SM -RA BR OVC015
     FM301700 08012KT 2SM -RA BR OVC003=

USA.gov is the U.S. government's official web portal to all federal, state and local government web resources and services.